• Join FlightAware (Why Join?)
  • Login
  • US Flag 
01:23AM EDT


 

Airport Tracker/Info


-or-


 

Live Flight TrackerFlight Track Log ✈ EJA589 ✈ 25-Apr-2013 ✈ KITH - KHPN

Flight Track Log - Related Links

Times and Time Zones

All times are in EDT time to prevent confusion due to time zone crossing. See the EJA589 flight status page for this flight to view local times or setup timezone preferences in your user account.

Time Position Orientation Groundspeed Altitude Reporting Facility
EDT Latitude Longitude Course Direction KTS MPH feet Rate Location/Type
04:35PM 42.5261 -76.3719 106° East 227 261 7,500  Level New York Center
04:36PM 42.5169 -76.3333 108° East 240 276 8,600 4,380 Climbing Boston Center
04:37PM 42.4878 -76.2106 108° East 293 337 13,600 3,660 Climbing Boston Center
04:38PM 42.4567 -76.0819 108° East 326 375 16,000 1,620 Climbing Boston Center
04:39PM 42.4233 -75.9450 108° East 362 417 16,900 420 Climbing Boston Center
04:40PM 42.3200 -75.6706 106° East  Level FlightAware Approximate
04:40PM 42.3881 -75.7994 108° East 386 444 16,900  Level Boston Center
04:41PM 42.2912 -75.5365 106° East  Level FlightAware Approximate
04:41PM 42.3547 -75.6600 108° East 393 452 16,900  Level Boston Center
04:42PM 42.3211 -75.5206 108° East 393 452 16,900  Level Boston Center
04:43PM 42.2892 -75.3900 108° East 393 452 17,000  Climbing Boston Center
04:44PM 42.2531 -75.2508 109° East 393 452 17,000 -60 Level Boston Center
04:45PM 42.2131 -75.0947 109° East 393 452 16,900 -60 Descending Boston Center
04:46PM 42.1744 -74.9531 110° East 393 452 16,900  Level Boston Center
04:47PM 42.1231 -74.8278 119° Southeast 388 447 16,900 -600 Level Boston Center
04:48PM 42.0692 -74.7056 121° Southeast 388 447 15,800 -2,400 Descending Boston Center
04:49PM 42.0256 -74.5950 118° Southeast 377 434 12,200 -2,520 Descending Boston Center
04:51PM 41.9397 -74.3911 119° Southeast 305 351 8,300 -1,740 Descending Boston Center
04:52PM 41.8994 -74.2978 120° Southeast 271 312 7,100 -660 Descending Boston Center
04:53PM 41.8656 -74.2158 119° Southeast 271 312 7,000 -60 Descending Boston Center
04:54PM 41.8189 -74.1256 125° Southeast 276 318 7,000  Level Boston Center
04:55PM 41.7697 -74.0600 135° Southeast 258 297 7,000 -420 Level Boston Center
04:56PM 41.7139 -74.0308 159° South 235 270 6,200 -540 Descending Boston Center
04:57PM 41.6497 -73.9958 158° South 230 265 6,000 -120 Descending Boston Center
04:58PM 41.5939 -73.9667 159° South 225 259 6,000  Level Boston Center
04:59PM 41.5319 -73.9319 157° South 237 273 6,000  Level Boston Center
05:01PM 41.3879 -73.8621 169° South  Level Estimated
05:01PM 41.4000 -73.8500 169° South 241 277 6,000  Level New York TRACON
05:03PM 41.2833 -73.7500 147° Southeast 240 276 4,400 -780 Descending New York TRACON
05:04PM 41.2333 -73.7000 143° Southeast 219 252 3,800 -720 Descending New York TRACON
05:05PM 41.1833 -73.6667 153° Southeast 194 223 3,000 -840 Descending New York TRACON
05:06PM 41.1500 -73.6167 132° Southeast 191 220 2,200 -540 Descending New York TRACON
05:07PM 41.1000 -73.6000 166° South 194 223 2,000 -120 Descending New York TRACON
05:08PM 41.0500 -73.5833 166° South 190 219 2,000  Level New York TRACON
05:09PM 41.0000 -73.5667 166° South 171 197 2,000  Level New York TRACON
05:10PM 40.9667 -73.6000 217° Southwest 171 197 2,000 -120 Level New York TRACON
05:11PM 41.0000 -73.6500 311° West 156 180 1,800 -480 Descending New York TRACON
05:12PM 41.0333 -73.6833 323° Northwest 144 166 1,100 -780 Descending New York TRACON